地図

経路データ

SID SEASON NUMBER BASIN SUBBASIN NAME ISO_TIME NATURE LAT LON WMO_WIND WMO_PRES WMO_AGENCY TRACK_TYPE DIST2LAND LANDFALL IFLAG USA_AGENCY USA_ATCF_ID USA_LAT USA_LON USA_RECORD USA_STATUS USA_WIND USA_PRES USA_SSHS USA_R34_NE USA_R34_SE USA_R34_SW USA_R34_NW USA_R50_NE USA_R50_SE USA_R50_SW USA_R50_NW USA_R64_NE USA_R64_SE USA_R64_SW USA_R64_NW USA_POCI USA_ROCI USA_RMW USA_EYE TOKYO_LAT TOKYO_LON TOKYO_GRADE TOKYO_WIND TOKYO_PRES TOKYO_R50_DIR TOKYO_R50_LONG TOKYO_R50_SHORT TOKYO_R30_DIR TOKYO_R30_LONG TOKYO_R30_SHORT TOKYO_LAND CMA_LAT CMA_LON CMA_CAT CMA_WIND CMA_PRES HKO_LAT HKO_LON HKO_CAT HKO_WIND HKO_PRES NEWDELHI_LAT NEWDELHI_LON NEWDELHI_GRADE NEWDELHI_WIND NEWDELHI_PRES NEWDELHI_CI NEWDELHI_DP NEWDELHI_POCI REUNION_LAT REUNION_LON REUNION_TYPE REUNION_WIND REUNION_PRES REUNION_TNUM REUNION_CI REUNION_RMW REUNION_R34_NE REUNION_R34_SE REUNION_R34_SW REUNION_R34_NW REUNION_R50_NE REUNION_R50_SE REUNION_R50_SW REUNION_R50_NW REUNION_R64_NE REUNION_R64_SE REUNION_R64_SW REUNION_R64_NW BOM_LAT BOM_LON BOM_TYPE BOM_WIND BOM_PRES BOM_TNUM BOM_CI BOM_RMW BOM_R34_NE BOM_R34_SE BOM_R34_SW BOM_R34_NW BOM_R50_NE BOM_R50_SE BOM_R50_SW BOM_R50_NW BOM_R64_NE BOM_R64_SE BOM_R64_SW BOM_R64_NW BOM_ROCI BOM_POCI BOM_EYE BOM_POS_METHOD BOM_PRES_METHOD NADI_LAT NADI_LON NADI_CAT NADI_WIND NADI_PRES WELLINGTON_LAT WELLINGTON_LON WELLINGTON_WIND WELLINGTON_PRES DS824_LAT DS824_LON DS824_STAGE DS824_WIND DS824_PRES TD9636_LAT TD9636_LON TD9636_STAGE TD9636_WIND TD9636_PRES TD9635_LAT TD9635_LON TD9635_WIND TD9635_PRES TD9635_ROCI NEUMANN_LAT NEUMANN_LON NEUMANN_CLASS NEUMANN_WIND NEUMANN_PRES MLC_LAT MLC_LON MLC_CLASS MLC_WIND MLC_PRES USA_GUST BOM_GUST BOM_GUST_PER REUNION_GUST REUNION_GUST_PER USA_SEAHGT USA_SEARAD_NE USA_SEARAD_SE USA_SEARAD_SW USA_SEARAD_NW STORM_SPEED STORM_DIR
1864283N18290 1864 18 NA CS NOT_NAMED 1864-10-08 12:00:00 TS 17.7000 -70.2000 main 55 11 _____________O -1 17.7000 -70.2000 TS 35 8 354
1864283N18290 1864 18 NA CS NOT_NAMED 1864-10-08 15:00:00 TS 18.0875 -70.2500 main 11 0 _____________P -1 18.0875 -70.2500 TS 37 8 353
1864283N18290 1864 18 NA NA NOT_NAMED 1864-10-08 18:00:00 TS 18.5000 -70.3000 main 0 0 _____________O -1 18.5000 -70.3000 TS 40 9 354
1864283N18290 1864 18 NA NA NOT_NAMED 1864-10-08 21:00:00 TS 18.9500 -70.3500 main 0 0 _____________P -1 18.9500 -70.3500 TS 40 9 354
1864283N18290 1864 18 NA NA NOT_NAMED 1864-10-09 00:00:00 TS 19.4000 -70.4000 main 0 0 _____________O -1 19.4000 -70.4000 TS 40 9 353
1864283N18290 1864 18 NA NA NOT_NAMED 1864-10-09 03:00:00 TS 19.8075 -70.4500 main 10 10 _____________P -1 19.8075 -70.4500 TS 40 8 353
1864283N18290 1864 18 NA NA NOT_NAMED 1864-10-09 06:00:00 TS 20.2000 -70.5000 main 45 45 _____________O -1 20.2000 -70.5000 TS 40 8 350
1864283N18290 1864 18 NA NA NOT_NAMED 1864-10-09 09:00:00 TS 20.6000 -70.5947 main 89 89 _____________P -1 20.6000 -70.5947 TS 40 8 353
1864283N18290 1864 18 NA NA NOT_NAMED 1864-10-09 12:00:00 TS 21.0000 -70.6000 main 134 134 _____________O -1 21.0000 -70.6000 TS 40 8 13
1864283N18290 1864 18 NA NA NOT_NAMED 1864-10-09 15:00:00 TS 21.4076 -70.3953 main 180 180 _____________P -1 21.4076 -70.3953 TS 42 9 30
1864283N18290 1864 18 NA NA NOT_NAMED 1864-10-09 18:00:00 TS 21.8000 -70.1000 main 229 229 _____________O -1 21.8000 -70.1000 TS 45 9 29
1864283N18290 1864 18 NA NA NOT_NAMED 1864-10-09 21:00:00 TS 22.1491 -69.9464 main 267 267 _____________P -1 22.1491 -69.9464 TS 45 8 33
1864283N18290 1864 18 NA NA NOT_NAMED 1864-10-10 00:00:00 TS 22.5000 -69.6000 main 319 319 _____________O -1 22.5000 -69.6000 TS 45 13 55
1864283N18290 1864 18 NA NA NOT_NAMED 1864-10-10 03:00:00 TS 22.9007 -68.7980 main 389 389 _____________P -1 22.9007 -68.7980 TS 45 18 64
1864283N18290 1864 18 NA NA NOT_NAMED 1864-10-10 06:00:00 TS 23.3000 -67.8000 main 472 472 _____________O -1 23.3000 -67.8000 TS 45 17 68
1864283N18290 1864 18 NA NA NOT_NAMED 1864-10-10 09:00:00 TS 23.5331 -67.0577 main 521 521 _____________P -1 23.5331 -67.0577 TS 45 18 67
1864283N18290 1864 18 NA NA NOT_NAMED 1864-10-10 12:00:00 TS 24.0000 -66.0000 main 626 626 _____________O -1 24.0000 -66.0000 TS 45 30 60
1864283N18290 1864 18 NA NA NOT_NAMED 1864-10-10 15:00:00 TS 25.0405 -64.1686 main 751 751 _____________P -1 25.0405 -64.1686 TS 45 43 58
1864283N18290 1864 18 NA NA NOT_NAMED 1864-10-10 18:00:00 TS 26.3000 -62.0000 main 957 957 _____________O -1 26.3000 -62.0000 TS 45 45 57
1864283N18290 1864 18 NA NA NOT_NAMED 1864-10-10 21:00:00 TS 27.4720 -59.9997 main 1167 1167 _____________P -1 27.4720 -59.9997 TS 45 42 58
1864283N18290 1864 18 NA NA NOT_NAMED 1864-10-11 00:00:00 ET 28.5000 -58.0000 main 1368 1368 _____________O -1 28.5000 -58.0000 EX 45 39 64
1864283N18290 1864 18 NA NA NOT_NAMED 1864-10-11 03:00:00 ET 29.2219 -55.9944 main 1550 1550 _____________P -1 29.2219 -55.9944 EX 45 37 70
1864283N18290 1864 18 NA NA NOT_NAMED 1864-10-11 06:00:00 ET 29.8000 -54.0000 main 1731 1731 _____________O -1 29.8000 -54.0000 EX 45 37 71
1864283N18290 1864 18 NA NA NOT_NAMED 1864-10-11 09:00:00 ET 30.4058 -51.9679 main 1806 1756 _____________P -1 30.4058 -51.9679 EX 45 37 71
1864283N18290 1864 18 NA NA NOT_NAMED 1864-10-11 12:00:00 ET 31.0000 -50.0000 main 1758 1721 _____________O -1 31.0000 -50.0000 EX 45 35 70
1864283N18290 1864 18 NA NA NOT_NAMED 1864-10-11 15:00:00 ET 31.6033 -48.1751 main 1723 1700 _____________P -1 31.6033 -48.1751 EX 45 33 69
1864283N18290 1864 18 NA NA NOT_NAMED 1864-10-11 18:00:00 ET 32.2000 -46.4000 main 1703 1696 _____________O -1 32.2000 -46.4000 EX 45 33 69
1864283N18290 1864 18 NA NA NOT_NAMED 1864-10-11 21:00:00 ET 32.7554 -44.5476 main 1703 1703 _____________P -1 32.7554 -44.5476 EX 47 33 71
1864283N18290 1864 18 NA NA NOT_NAMED 1864-10-12 00:00:00 ET 33.3000 -42.7000 main 1724 1723 _____________O -1 33.3000 -42.7000 EX 50 32 70
1864283N18290 1864 18 NA NA NOT_NAMED 1864-10-12 03:00:00 ET 33.8471 -40.8901 main 1759 1755 _____________P -1 33.8471 -40.8901 EX 52 32 70
1864283N18290 1864 18 NA NA NOT_NAMED 1864-10-12 06:00:00 ET 34.4000 -39.1000 main 1798 1798 _____________O -1 34.4000 -39.1000 EX 55 32 70
1864283N18290 1864 18 NA NA NOT_NAMED 1864-10-12 09:00:00 ET 34.9808 -37.2113 main 1855 1855 _____________P -1 34.9808 -37.2113 EX 57 31 70
1864283N18290 1864 18 NA NA NOT_NAMED 1864-10-12 12:00:00 ET 35.5000 -35.5000 main 1919 1842 _____________O -1 35.5000 -35.5000 EX 60 980 26 70
1864283N18290 1864 18 NA NA NOT_NAMED 1864-10-12 15:00:00 ET 35.8830 -34.2066 main 1838 1770 _____________P -1 35.8830 -34.2066 EX 60 21 70
1864283N18290 1864 18 NA NA NOT_NAMED 1864-10-12 18:00:00 ET 36.2000 -33.1000 main 1762 1689 _____________O -1 36.2000 -33.1000 EX 60 20 72
1864283N18290 1864 18 NA NA NOT_NAMED 1864-10-12 21:00:00 ET 36.5065 -31.8913 main 1681 1613 _____________P -1 36.5065 -31.8913 EX 60 20 73
1864283N18290 1864 18 NA NA NOT_NAMED 1864-10-13 00:00:00 ET 36.8000 -30.7000 main 1606 1544 _____________O -1 36.8000 -30.7000 EX 60 20 72
1864283N18290 1864 18 NA NA NOT_NAMED 1864-10-13 03:00:00 ET 37.0984 -29.5489 main 1536 1487 _____________P -1 37.0984 -29.5489 EX 60 19 72
1864283N18290 1864 18 NA NA NOT_NAMED 1864-10-13 06:00:00 ET 37.4000 -28.4000 main 1480 1424 _____________O -1 37.4000 -28.4000 EX 60 20 72
1864283N18290 1864 18 NA NA NOT_NAMED 1864-10-13 09:00:00 ET 37.7465 -27.1043 main 1418 1376 _____________P -1 37.7465 -27.1043 EX 60 20 72
1864283N18290 1864 18 NA NA NOT_NAMED 1864-10-13 12:00:00 ET 38.0000 -26.0000 main 1376 1343 _____________O -1 38.0000 -26.0000 EX 60 14 78
1864283N18290 1864 18 NA NA NOT_NAMED 1864-10-13 15:00:00 ET 38.0428 -25.3933 main 1343 1321 _____________P -1 38.0428 -25.3933 EX 57 8 90
1864283N18290 1864 18 NA NA NOT_NAMED 1864-10-13 18:00:00 ET 38.0000 -25.0000 main 1321 1295 _____________O -1 38.0000 -25.0000 EX 55 7 93
1864283N18290 1864 18 NA NA NOT_NAMED 1864-10-13 21:00:00 ET 37.9998 -24.5000 main 1295 1261 _____________P -1 37.9998 -24.5000 EX 52 8 90
1864283N18290 1864 18 NA NA NOT_NAMED 1864-10-14 00:00:00 ET 38.0000 -24.0000 main 1261 1218 _____________O -1 38.0000 -24.0000 EX 50 8 90
1864283N18290 1864 18 NA NA NOT_NAMED 1864-10-14 03:00:00 ET 37.9998 -23.5000 main 1218 1175 _____________P -1 37.9998 -23.5000 EX 47 8 90
1864283N18290 1864 18 NA NA NOT_NAMED 1864-10-14 06:00:00 ET 38.0000 -23.0000 main 1175 1132 _____________O -1 38.0000 -23.0000 EX 45 8 90
1864283N18290 1864 18 NA NA NOT_NAMED 1864-10-14 09:00:00 ET 38.0004 -22.5000 main 1132 1089 _____________P -1 38.0004 -22.5000 EX 42 8 90
1864283N18290 1864 18 NA NA NOT_NAMED 1864-10-14 12:00:00 ET 38.0000 -22.0000 main 1089 _____________O -1 38.0000 -22.0000 EX 40 8 90

IBTrACS Databaseについて

本データベースは、米国NOAAが公開する1842年以降の世界の熱帯低気圧のベストトラックデータアーカイブInternational Best Track Archive for Climate Stewardship (IBTrACS)を、ウェブで閲覧しやすい形式に変換したものです。

最終更新日:2021-10-25